createdAt,value
2019-03-28T00:00:58.407Z,51.58
2019-03-28T00:02:02.583Z,60.50
2019-03-28T00:03:06.763Z,53.78
2019-03-28T00:04:10.946Z,50.60
2019-03-28T00:05:15.218Z,49.97
2019-03-28T00:06:19.397Z,58.00
2019-03-28T00:07:24.344Z,59.27
2019-03-28T00:08:28.696Z,57.00
2019-03-28T00:09:32.874Z,50.88
2019-03-28T00:10:37.051Z,55.38
2019-03-28T00:11:41.294Z,51.73
2019-03-28T00:12:46.737Z,54.98
2019-03-28T00:13:50.958Z,58.98
2019-03-28T00:14:55.144Z,52.08
2019-03-28T00:15:59.474Z,56.00
2019-03-28T00:17:03.658Z,49.70
2019-03-28T00:18:07.964Z,54.50
2019-03-28T00:19:12.205Z,54.53
2019-03-28T00:20:16.675Z,57.37
2019-03-28T00:21:20.945Z,52.20
2019-03-28T00:22:43.283Z,57.78
2019-03-28T00:23:49.136Z,56.23
2019-03-28T00:25:05.037Z,59.27
2019-03-28T00:26:09.215Z,56.65
2019-03-28T00:27:13.397Z,56.90
2019-03-28T00:28:17.578Z,55.37
2019-03-28T00:29:22.671Z,58.20
2019-03-28T00:30:26.867Z,60.83
2019-03-28T00:31:31.999Z,51.90
2019-03-28T00:32:36.190Z,57.55
2019-03-28T00:33:40.382Z,57.15
2019-03-28T00:34:44.641Z,51.68
2019-03-28T00:35:48.818Z,57.73
2019-03-28T00:36:53.066Z,52.40
2019-03-28T00:37:57.266Z,55.75
2019-03-28T00:39:01.480Z,55.17
2019-03-28T00:40:07.272Z,56.70
2019-03-28T00:41:11.462Z,53.93
2019-03-28T00:42:15.634Z,54.20
2019-03-28T00:43:19.905Z,58.17
2019-03-28T00:44:24.418Z,57.10
2019-03-28T00:45:28.672Z,48.95
2019-03-28T00:46:32.851Z,51.42
2019-03-28T00:47:37.286Z,54.00
2019-03-28T00:48:41.501Z,55.33
2019-03-28T00:49:45.756Z,51.55
2019-03-28T00:50:49.941Z,54.58
2019-03-28T00:51:54.119Z,62.48
2019-03-28T00:52:58.296Z,54.58
2019-03-28T00:54:02.500Z,54.98
2019-03-28T00:55:06.975Z,53.55
2019-03-28T00:56:11.175Z,49.70
2019-03-28T00:57:15.370Z,60.50
2019-03-28T00:58:19.617Z,57.90
2019-03-28T00:59:24.266Z,55.63
2019-03-28T01:00:28.557Z,49.98
2019-03-28T01:01:32.739Z,57.60
2019-03-28T01:02:36.959Z,61.23
2019-03-28T01:03:41.168Z,62.23
2019-03-28T01:04:45.342Z,55.85
2019-03-28T01:05:49.804Z,58.95
2019-03-28T01:06:53.994Z,58.08
2019-03-28T01:07:58.223Z,54.67
2019-03-28T01:09:04.280Z,53.30
2019-03-28T01:10:08.599Z,54.38
2019-03-28T01:11:12.782Z,54.33
2019-03-28T01:12:16.969Z,57.03
2019-03-28T01:13:21.171Z,56.45
2019-03-28T01:14:25.377Z,57.13
2019-03-28T01:15:29.557Z,58.65
2019-03-28T01:16:33.734Z,54.00
2019-03-28T01:17:39.527Z,58.73
2019-03-28T01:18:43.737Z,52.70
2019-03-28T01:19:47.938Z,57.33
2019-03-28T01:20:52.196Z,55.15
2019-03-28T01:21:56.429Z,60.40
2019-03-28T01:23:00.680Z,57.67
2019-03-28T01:24:04.862Z,63.58
2019-03-28T01:25:09.067Z,58.15
2019-03-28T01:26:13.358Z,57.20
2019-03-28T01:27:18.536Z,57.50
2019-03-28T01:28:22.750Z,55.70
2019-03-28T01:29:26.940Z,53.38
2019-03-28T01:30:31.139Z,57.35
2019-03-28T01:31:36.185Z,54.80
2019-03-28T01:32:40.435Z,55.75
2019-03-28T01:33:44.610Z,63.45
2019-03-28T01:34:48.791Z,59.85
2019-03-28T01:35:53.006Z,51.93
2019-03-28T01:36:57.206Z,59.20
2019-03-28T01:38:01.457Z,54.27
2019-03-28T01:39:06.210Z,57.70
2019-03-28T01:40:10.391Z,55.80
2019-03-28T01:41:14.774Z,60.50
2019-03-28T01:42:18.953Z,50.97
2019-03-28T01:43:23.204Z,55.40
2019-03-28T01:44:27.378Z,56.58
2019-03-28T01:45:31.559Z,62.90
2019-03-28T01:46:35.763Z,55.45
2019-03-28T01:47:39.942Z,66.53
2019-03-28T01:48:44.123Z,54.38
2019-03-28T01:49:48.414Z,60.98
2019-03-28T01:50:52.590Z,55.92
2019-03-28T01:51:56.851Z,52.40
2019-03-28T01:53:01.026Z,55.40
2019-03-28T01:54:05.290Z,59.63
2019-03-28T01:55:10.006Z,57.78
2019-03-28T01:56:14.186Z,56.10
2019-03-28T01:57:18.380Z,58.97
2019-03-28T01:58:22.657Z,58.85
2019-03-28T01:59:26.862Z,61.53
2019-03-28T02:00:31.091Z,57.30
2019-03-28T02:01:35.318Z,56.40
2019-03-28T02:02:39.495Z,60.78
2019-03-28T02:03:43.721Z,58.45
2019-03-28T02:04:47.898Z,55.92
2019-03-28T02:05:52.100Z,56.90
2019-03-28T02:06:56.272Z,54.67
2019-03-28T02:08:03.413Z,59.63
2019-03-28T02:09:07.593Z,54.88
2019-03-28T02:10:11.822Z,57.23
2019-03-28T02:11:16.066Z,63.13
2019-03-28T02:12:21.247Z,59.47
2019-03-28T02:13:25.380Z,60.15
2019-03-28T02:14:29.560Z,59.53
2019-03-28T02:15:33.765Z,60.00
2019-03-28T02:16:38.009Z,58.28
2019-03-28T02:17:42.182Z,57.17
2019-03-28T02:18:46.356Z,55.50
2019-03-28T02:19:50.610Z,60.23
2019-03-28T02:20:54.819Z,63.08
2019-03-28T02:21:59.023Z,57.98
2019-03-28T02:23:03.208Z,57.85
2019-03-28T02:24:07.460Z,57.65
2019-03-28T02:25:11.708Z,56.80
2019-03-28T02:26:15.912Z,59.47
2019-03-28T02:27:24.288Z,58.13
2019-03-28T02:28:25.975Z,60.38
2019-03-28T02:29:30.137Z,56.10
2019-03-28T02:30:34.311Z,61.08
2019-03-28T02:31:38.672Z,61.48
2019-03-28T02:32:42.845Z,57.30
2019-03-28T02:33:47.019Z,58.28
2019-03-28T02:34:51.265Z,62.25
2019-03-28T02:35:55.443Z,60.60
2019-03-28T02:36:59.669Z,58.52
2019-03-28T02:38:04.940Z,64.52
2019-03-28T02:39:09.114Z,61.15
2019-03-28T02:40:13.388Z,58.00
2019-03-28T02:41:17.557Z,60.40
2019-03-28T02:42:21.792Z,60.97
2019-03-28T02:43:26.001Z,61.28
2019-03-28T02:44:30.135Z,59.83
2019-03-28T02:45:34.323Z,57.45
2019-03-28T02:46:38.485Z,59.10
2019-03-28T02:47:43.040Z,62.67
2019-03-28T02:48:47.227Z,63.40
2019-03-28T02:49:51.449Z,58.85
2019-03-28T02:50:55.640Z,58.92
2019-03-28T02:51:59.814Z,62.20
2019-03-28T02:53:04.660Z,60.38
2019-03-28T02:54:08.834Z,60.20
2019-03-28T02:55:13.103Z,56.17
2019-03-28T02:56:17.277Z,62.10
2019-03-28T02:57:21.526Z,62.87
2019-03-28T02:58:25.838Z,65.85
2019-03-28T02:59:30.084Z,64.53
2019-03-28T03:00:34.260Z,57.38
2019-03-28T03:01:38.431Z,60.10
2019-03-28T03:02:42.602Z,59.35
2019-03-28T03:03:46.823Z,64.67
2019-03-28T03:04:51.134Z,63.20
2019-03-28T03:05:55.311Z,64.80
2019-03-28T03:06:59.477Z,61.15
2019-03-28T03:08:04.700Z,58.92
2019-03-28T03:09:09.686Z,62.70
2019-03-28T03:10:13.951Z,62.33
2019-03-28T03:11:18.124Z,62.93
2019-03-28T03:12:22.366Z,67.17
2019-03-28T03:13:26.584Z,66.33
2019-03-28T03:14:30.783Z,63.98
2019-03-28T03:15:35.025Z,61.30
2019-03-28T03:16:39.202Z,62.08
2019-03-28T03:17:43.382Z,61.45
2019-03-28T03:18:47.593Z,57.67
2019-03-28T03:19:51.864Z,63.52
2019-03-28T03:20:56.040Z,64.05
2019-03-28T03:22:00.203Z,62.90
2019-03-28T03:23:04.372Z,57.90
2019-03-28T03:24:08.554Z,61.48
2019-03-28T03:25:12.761Z,59.77
2019-03-28T03:26:16.929Z,61.73
2019-03-28T03:27:21.097Z,67.70
2019-03-28T03:28:25.271Z,68.40
2019-03-28T03:29:29.470Z,67.00
2019-03-28T03:30:33.698Z,64.27
2019-03-28T03:31:37.867Z,61.50
2019-03-28T03:32:42.317Z,63.28
2019-03-28T03:33:46.484Z,60.58
2019-03-28T03:34:50.726Z,70.37
2019-03-28T03:35:55.186Z,62.23
2019-03-28T03:36:59.357Z,71.17
2019-03-28T03:38:04.431Z,68.14
2019-03-28T03:39:09.055Z,66.87
2019-03-28T03:40:13.519Z,69.07
2019-03-28T03:41:17.959Z,63.40
2019-03-28T03:42:22.379Z,65.20
2019-03-28T03:43:26.583Z,65.95
2019-03-28T03:44:30.813Z,68.28
2019-03-28T03:45:35.648Z,65.28
2019-03-28T03:46:40.116Z,64.05
2019-03-28T03:47:44.294Z,74.85
2019-03-28T03:48:48.495Z,63.33
2019-03-28T03:49:52.679Z,69.67
2019-03-28T03:50:56.863Z,70.05
2019-03-28T03:52:01.064Z,64.37
2019-03-28T03:53:05.310Z,65.60
2019-03-28T03:54:09.485Z,66.15
2019-03-28T03:55:13.655Z,69.93
2019-03-28T03:56:17.836Z,66.47
2019-03-28T03:57:22.038Z,62.62
2019-03-28T03:58:26.217Z,68.10
2019-03-28T03:59:30.387Z,67.05
2019-03-28T04:00:35.899Z,63.58
2019-03-28T04:01:40.343Z,61.58
2019-03-28T04:02:44.537Z,66.62
2019-03-28T04:03:48.711Z,66.15
2019-03-28T04:04:56.329Z,68.02
2019-03-28T04:05:58.940Z,66.97
2019-03-28T04:07:03.113Z,67.50
2019-03-28T04:08:07.427Z,73.35
2019-03-28T04:09:11.681Z,68.30
2019-03-28T04:10:15.909Z,64.53
2019-03-28T04:11:20.113Z,67.23
2019-03-28T04:12:24.285Z,66.75
2019-03-28T04:13:29.792Z,62.98
2019-03-28T04:14:33.979Z,69.82
2019-03-28T04:15:38.290Z,66.70
2019-03-28T04:16:42.507Z,64.37
2019-03-28T04:17:47.709Z,74.45
2019-03-28T04:18:52.239Z,68.97
2019-03-28T04:19:56.423Z,65.28
2019-03-28T04:21:00.686Z,65.78
2019-03-28T04:22:04.880Z,60.17
2019-03-28T04:23:09.056Z,65.55
2019-03-28T04:24:13.322Z,70.53
2019-03-28T04:25:17.484Z,72.17
2019-03-28T04:26:21.821Z,68.40
2019-03-28T04:27:25.998Z,65.70
2019-03-28T04:28:32.041Z,69.77
2019-03-28T04:29:36.145Z,73.15
2019-03-28T04:30:41.404Z,67.95
2019-03-28T04:31:45.576Z,65.80
2019-03-28T04:32:49.774Z,73.12
2019-03-28T04:33:53.929Z,68.07
2019-03-28T04:34:58.254Z,67.62
2019-03-28T04:36:02.401Z,69.10
2019-03-28T04:37:06.925Z,70.47
2019-03-28T04:38:11.139Z,73.12
2019-03-28T04:39:15.423Z,61.53
2019-03-28T04:40:20.743Z,72.77
2019-03-28T04:41:25.006Z,72.65
2019-03-28T04:42:29.249Z,70.62
2019-03-28T04:43:33.431Z,67.45
2019-03-28T04:44:37.613Z,75.40
2019-03-28T04:45:42.783Z,73.20
2019-03-28T04:46:47.161Z,68.17
2019-03-28T04:47:51.603Z,70.65
2019-03-28T04:48:55.788Z,66.55
2019-03-28T04:49:59.982Z,67.15
2019-03-28T04:51:04.877Z,77.10
2019-03-28T04:52:09.385Z,72.37
2019-03-28T04:53:13.610Z,69.20
2019-03-28T04:54:17.814Z,68.23
2019-03-28T04:55:21.989Z,66.00
2019-03-28T04:56:26.177Z,67.10
2019-03-28T04:57:30.381Z,73.25
2019-03-28T04:58:44.277Z,74.17
2019-03-28T04:59:41.399Z,74.45
2019-03-28T05:00:45.649Z,72.32
2019-03-28T05:02:02.670Z,79.60
2019-03-28T05:02:56.097Z,75.72
2019-03-28T05:04:00.354Z,74.25
2019-03-28T05:05:06.411Z,67.53
2019-03-28T05:06:10.722Z,77.47
2019-03-28T05:07:14.897Z,75.10
2019-03-28T05:08:19.122Z,70.23
2019-03-28T05:09:23.327Z,76.00
2019-03-28T05:10:27.508Z,81.20
2019-03-28T05:11:31.681Z,74.30
2019-03-28T05:12:35.867Z,71.25
2019-03-28T05:13:40.070Z,75.05
2019-03-28T05:14:44.273Z,73.37
2019-03-28T05:15:48.462Z,72.80
2019-03-28T05:16:52.792Z,70.60
2019-03-28T05:17:56.968Z,74.50
2019-03-28T05:19:01.200Z,76.90
2019-03-28T05:20:06.037Z,72.80
2019-03-28T05:21:10.217Z,79.37
2019-03-28T05:22:14.534Z,78.17
2019-03-28T05:23:18.705Z,75.27
2019-03-28T05:24:25.500Z,72.27
2019-03-28T05:25:28.882Z,79.03
2019-03-28T05:26:33.062Z,72.08
2019-03-28T05:27:37.308Z,79.00
2019-03-28T05:28:41.486Z,76.45
2019-03-28T05:29:45.695Z,76.30
2019-03-28T05:30:49.884Z,73.55
2019-03-28T05:31:54.061Z,72.37
2019-03-28T05:32:58.364Z,75.70
2019-03-28T05:34:02.637Z,73.27
2019-03-28T05:35:07.456Z,77.35
2019-03-28T05:36:11.653Z,78.97
2019-03-28T05:37:15.921Z,78.97
2019-03-28T05:38:20.119Z,74.57
2019-03-28T05:39:24.290Z,83.17
2019-03-28T05:40:31.354Z,76.92
2019-03-28T05:41:35.532Z,79.82
2019-03-28T05:42:39.706Z,79.42
2019-03-28T05:43:45.455Z,79.37
2019-03-28T05:44:49.900Z,76.82
2019-03-28T05:45:54.104Z,78.20
2019-03-28T05:46:58.307Z,78.12
2019-03-28T05:48:02.521Z,76.28
2019-03-28T05:49:06.690Z,79.55
2019-03-28T05:50:11.003Z,66.23
2019-03-28T05:51:15.229Z,82.67
2019-03-28T05:52:19.478Z,76.13
2019-03-28T05:53:23.650Z,73.30
2019-03-28T05:54:28.968Z,74.37
2019-03-28T05:55:33.181Z,70.20
2019-03-28T05:56:37.359Z,74.75
2019-03-28T05:57:41.732Z,78.00
2019-03-28T05:58:45.902Z,76.35
2019-03-28T05:59:50.149Z,72.90
2019-03-28T06:00:54.325Z,73.40
2019-03-28T06:01:58.558Z,72.65
2019-03-28T06:03:02.828Z,74.17
2019-03-28T06:04:07.019Z,71.30
2019-03-28T06:05:11.257Z,75.93
2019-03-28T06:06:15.430Z,73.17
2019-03-28T06:07:19.749Z,72.87
2019-03-28T06:08:23.978Z,70.22
2019-03-28T06:09:28.187Z,71.80
2019-03-28T06:10:32.406Z,65.83
2019-03-28T06:11:36.670Z,77.27
2019-03-28T06:12:40.883Z,77.92
2019-03-28T06:13:45.197Z,70.62
2019-03-28T06:14:49.403Z,76.53
2019-03-28T06:15:53.574Z,77.03
2019-03-28T06:16:57.763Z,72.90
2019-03-28T06:18:01.946Z,72.08
2019-03-28T06:19:06.196Z,73.25
2019-03-28T06:20:10.549Z,78.40
2019-03-28T06:21:14.834Z,72.07
2019-03-28T06:22:19.015Z,77.37
2019-03-28T06:23:23.185Z,74.37
2019-03-28T06:24:27.358Z,71.67
2019-03-28T06:25:31.535Z,78.28
2019-03-28T06:26:35.737Z,76.30
2019-03-28T06:27:39.952Z,72.50
2019-03-28T06:28:44.194Z,81.82
2019-03-28T06:29:48.401Z,89.67
2019-03-28T06:30:54.634Z,88.80
2019-03-28T06:31:58.529Z,101.42
2019-03-28T06:33:02.751Z,105.95
2019-03-28T06:34:08.593Z,104.07
2019-03-28T06:35:12.773Z,98.30
2019-03-28T06:36:16.959Z,97.77
2019-03-28T06:37:21.209Z,98.07
2019-03-28T06:38:25.395Z,106.60
2019-03-28T06:39:29.656Z,92.82
2019-03-28T06:40:33.858Z,109.30
2019-03-28T06:41:38.047Z,116.12
2019-03-28T06:42:43.919Z,123.65
2019-03-28T06:43:48.109Z,115.23
2019-03-28T06:44:55.896Z,113.83
2019-03-28T06:46:00.080Z,107.45
2019-03-28T06:47:07.527Z,114.68
2019-03-28T06:48:11.742Z,108.00
2019-03-28T06:49:15.926Z,91.93
2019-03-28T06:50:20.282Z,72.22
2019-03-28T06:51:25.558Z,72.00
2019-03-28T06:52:29.698Z,65.97
2019-03-28T06:53:33.880Z,71.87
2019-03-28T06:54:38.063Z,72.15
2019-03-28T06:55:42.641Z,75.92
2019-03-28T06:56:46.819Z,76.55
2019-03-28T06:57:51.046Z,85.50
2019-03-28T06:58:55.228Z,88.82
2019-03-28T06:59:59.412Z,95.30
2019-03-28T07:01:04.567Z,98.96
2019-03-28T07:02:08.757Z,95.22
2019-03-28T07:03:13.118Z,92.53
2019-03-28T07:04:17.323Z,96.07
2019-03-28T07:05:22.261Z,91.97
2019-03-28T07:06:26.547Z,102.83
2019-03-28T07:07:32.342Z,104.72
2019-03-28T07:08:36.671Z,96.75
2019-03-28T07:09:40.868Z,107.45
2019-03-28T07:10:45.047Z,104.97
2019-03-28T07:11:49.300Z,103.80
2019-03-28T07:12:53.512Z,104.65
2019-03-28T07:13:57.698Z,79.80
2019-03-28T07:15:01.974Z,68.52
2019-03-28T07:16:06.130Z,60.67
2019-03-28T07:17:10.365Z,58.47
2019-03-28T07:18:14.539Z,58.67
2019-03-28T07:19:18.723Z,60.40
2019-03-28T07:20:22.908Z,61.53
2019-03-28T07:21:27.153Z,58.25
2019-03-28T07:22:31.470Z,62.75
2019-03-28T07:23:35.651Z,63.10
2019-03-28T07:24:39.837Z,63.45
2019-03-28T07:25:44.018Z,59.63
2019-03-28T07:26:48.204Z,56.20
2019-03-28T07:27:52.489Z,60.35
2019-03-28T07:28:56.699Z,55.65
2019-03-28T07:30:00.948Z,61.63
2019-03-28T07:31:05.390Z,59.00
2019-03-28T07:32:09.598Z,53.33
2019-03-28T07:33:14.880Z,57.00
2019-03-28T07:34:19.098Z,53.10
2019-03-28T07:35:23.278Z,54.37
2019-03-28T07:36:27.426Z,52.48
2019-03-28T07:37:32.079Z,56.88
2019-03-28T07:38:37.755Z,58.90
2019-03-28T07:39:42.045Z,60.52
2019-03-28T07:40:46.295Z,57.05
2019-03-28T07:41:50.488Z,54.00
2019-03-28T07:42:55.050Z,56.80
2019-03-28T07:43:59.243Z,58.47
2019-03-28T07:45:07.235Z,59.77
2019-03-28T07:46:11.425Z,57.20
2019-03-28T07:47:15.611Z,59.30
2019-03-28T07:48:20.412Z,57.70
2019-03-28T07:49:24.695Z,56.03
2019-03-28T07:50:28.898Z,56.15
2019-03-28T07:51:33.085Z,60.90
2019-03-28T07:52:37.269Z,56.18
2019-03-28T07:53:41.487Z,58.10
2019-03-28T07:54:48.714Z,63.48
2019-03-28T07:55:51.616Z,56.95
2019-03-28T07:56:55.839Z,59.08
2019-03-28T07:57:59.990Z,61.90
2019-03-28T07:59:05.349Z,56.84
2019-03-28T08:00:11.056Z,58.73
2019-03-28T08:01:17.945Z,61.13
2019-03-28T08:02:21.201Z,53.87
2019-03-28T08:03:25.398Z,55.28
2019-03-28T08:04:29.583Z,52.13
2019-03-28T08:05:33.835Z,48.00
2019-03-28T08:06:49.065Z,48.95
2019-03-28T08:07:45.886Z,50.98
2019-03-28T08:08:50.014Z,52.55
2019-03-28T08:09:55.447Z,55.60
2019-03-28T08:10:59.698Z,54.83
2019-03-28T08:12:04.767Z,53.68
2019-03-28T08:13:09.166Z,57.08
2019-03-28T08:14:13.459Z,55.07
2019-03-28T08:15:17.639Z,50.40
2019-03-28T08:16:21.823Z,45.83
2019-03-28T08:17:26.003Z,47.58
2019-03-28T08:18:30.189Z,49.47
2019-03-28T08:19:34.410Z,52.17
2019-03-28T08:20:38.594Z,49.63
2019-03-28T08:21:42.874Z,49.58
2019-03-28T08:22:47.143Z,42.40
2019-03-28T08:23:51.332Z,46.45
2019-03-28T08:24:55.588Z,44.05
2019-03-28T08:25:59.838Z,43.87
2019-03-28T08:27:04.811Z,40.60
2019-03-28T08:28:08.993Z,45.90
2019-03-28T08:29:13.195Z,43.43
2019-03-28T08:30:20.781Z,42.73
2019-03-28T08:31:25.129Z,45.60
2019-03-28T08:32:29.405Z,48.00
2019-03-28T08:33:33.645Z,48.25
2019-03-28T08:34:37.800Z,45.80
2019-03-28T08:35:43.206Z,44.20
2019-03-28T08:36:47.527Z,47.33
2019-03-28T08:37:51.837Z,46.08
2019-03-28T08:38:56.027Z,45.60
2019-03-28T08:40:00.356Z,45.30
2019-03-28T08:41:07.102Z,42.30
2019-03-28T08:42:10.597Z,46.23
2019-03-28T08:43:15.071Z,46.83
2019-03-28T08:44:22.547Z,45.25
2019-03-28T08:45:25.378Z,44.50
2019-03-28T08:46:29.564Z,40.95
2019-03-28T08:47:33.797Z,45.05
2019-03-28T08:48:38.110Z,44.90
2019-03-28T08:49:42.291Z,46.95
2019-03-28T08:50:46.521Z,46.83
2019-03-28T08:51:50.717Z,44.20
2019-03-28T08:52:54.886Z,47.83
2019-03-28T08:53:59.190Z,44.25
2019-03-28T08:55:09.814Z,48.50
2019-03-28T08:56:12.328Z,51.03
2019-03-28T08:57:16.517Z,47.90
2019-03-28T08:58:20.736Z,48.83
2019-03-28T08:59:24.972Z,50.85
2019-03-28T09:00:35.298Z,45.80
2019-03-28T09:01:35.029Z,47.33
2019-03-28T09:02:39.210Z,45.33
2019-03-28T09:03:43.396Z,44.27
2019-03-28T09:04:47.609Z,53.28
2019-03-28T09:05:51.889Z,44.88
2019-03-28T09:06:56.073Z,49.13
2019-03-28T09:08:00.370Z,46.02
2019-03-28T09:09:06.438Z,47.43
2019-03-28T09:10:10.743Z,46.90
2019-03-28T09:11:14.926Z,49.90
2019-03-28T09:12:19.107Z,45.63
2019-03-28T09:13:23.296Z,48.48
2019-03-28T09:14:31.916Z,49.93
2019-03-28T09:15:43.594Z,51.92
2019-03-28T09:16:41.336Z,53.42
2019-03-28T09:17:45.515Z,46.88
2019-03-28T09:18:49.700Z,45.00
2019-03-28T09:19:53.880Z,44.38
2019-03-28T09:20:58.307Z,43.55
2019-03-28T09:22:02.600Z,46.85
2019-03-28T09:23:06.782Z,45.12
2019-03-28T09:24:10.960Z,42.73
2019-03-28T09:25:15.215Z,44.97
2019-03-28T09:26:19.438Z,45.83
2019-03-28T09:27:23.630Z,45.30
2019-03-28T09:28:27.926Z,48.08
2019-03-28T09:29:32.125Z,49.65
2019-03-28T09:30:48.232Z,42.80
2019-03-28T09:31:44.118Z,38.80
2019-03-28T09:32:48.354Z,42.80
2019-03-28T09:33:52.533Z,45.30
2019-03-28T09:34:56.846Z,44.23
2019-03-28T09:36:01.003Z,46.60
2019-03-28T09:37:05.184Z,42.00
2019-03-28T09:38:09.398Z,44.98
2019-03-28T09:39:13.666Z,45.67
2019-03-28T09:40:17.894Z,45.80
2019-03-28T09:41:23.209Z,43.47
2019-03-28T09:42:27.596Z,46.92
2019-03-28T09:43:31.950Z,42.05
2019-03-28T09:44:36.132Z,39.85
2019-03-28T09:45:40.387Z,42.30
2019-03-28T09:46:44.592Z,41.98
2019-03-28T09:47:48.912Z,43.48
2019-03-28T09:48:53.455Z,39.33
2019-03-28T09:49:57.709Z,42.85
2019-03-28T09:51:01.892Z,39.78
2019-03-28T09:52:06.147Z,40.73
2019-03-28T09:53:10.463Z,41.47
2019-03-28T09:54:14.822Z,38.60
2019-03-28T09:55:19.168Z,35.20
2019-03-28T09:56:23.307Z,37.83
2019-03-28T09:57:27.501Z,41.13
2019-03-28T09:58:31.681Z,33.25
2019-03-28T09:59:35.899Z,28.55
2019-03-28T10:00:40.082Z,31.80
2019-03-28T10:01:44.364Z,27.82
2019-03-28T10:02:49.697Z,32.30
2019-03-28T10:03:53.951Z,34.05
2019-03-28T10:04:58.574Z,31.52
2019-03-28T10:06:04.389Z,30.26
2019-03-28T10:07:08.668Z,29.35
2019-03-28T10:08:12.919Z,26.90
2019-03-28T10:09:18.590Z,29.80
2019-03-28T10:10:22.766Z,29.20
2019-03-28T10:11:27.099Z,27.60
2019-03-28T10:12:34.128Z,27.87
2019-03-28T10:13:37.213Z,30.02
2019-03-28T10:14:41.400Z,27.13
2019-03-28T10:15:45.575Z,25.32
2019-03-28T10:16:49.762Z,24.30
2019-03-28T10:17:54.788Z,26.90
2019-03-28T10:18:59.294Z,24.47
2019-03-28T10:20:06.575Z,25.05
2019-03-28T10:21:10.822Z,24.53
2019-03-28T10:22:15.003Z,26.03
2019-03-28T10:23:19.234Z,26.47
2019-03-28T10:24:23.417Z,24.95
2019-03-28T10:25:27.735Z,22.60
2019-03-28T10:26:31.914Z,21.48
2019-03-28T10:27:36.439Z,23.52
2019-03-28T10:28:40.739Z,24.57
2019-03-28T10:29:44.997Z,25.10
2019-03-28T10:30:49.241Z,22.50
2019-03-28T10:31:53.423Z,23.55
2019-03-28T10:32:58.352Z,22.50
2019-03-28T10:34:02.534Z,24.00
2019-03-28T10:35:07.306Z,24.50
2019-03-28T10:36:11.594Z,25.43
2019-03-28T10:37:15.775Z,24.10
2019-03-28T10:38:19.957Z,25.13
2019-03-28T10:39:24.195Z,26.80
2019-03-28T10:40:28.413Z,25.85
2019-03-28T10:41:32.594Z,21.65
2019-03-28T10:42:36.769Z,23.35
2019-03-28T10:43:40.975Z,23.93
2019-03-28T10:44:45.162Z,21.07
2019-03-28T10:45:49.374Z,21.93
2019-03-28T10:46:53.551Z,25.05
2019-03-28T10:47:57.805Z,20.82
2019-03-28T10:49:01.983Z,21.35
2019-03-28T10:50:06.434Z,21.57
2019-03-28T10:51:10.903Z,23.70
2019-03-28T10:52:15.349Z,21.62
2019-03-28T10:53:19.524Z,20.37
2019-03-28T10:54:25.739Z,20.35
2019-03-28T10:55:29.582Z,18.75
2019-03-28T10:56:34.150Z,19.37
2019-03-28T10:57:38.325Z,21.15
2019-03-28T10:58:42.589Z,24.85
2019-03-28T10:59:46.763Z,23.20
2019-03-28T11:00:50.946Z,21.02
2019-03-28T11:01:56.214Z,19.60
2019-03-28T11:03:00.465Z,20.52
2019-03-28T11:04:04.801Z,19.45
2019-03-28T11:05:08.985Z,21.97
2019-03-28T11:06:13.232Z,20.70
2019-03-28T11:07:17.439Z,21.53
2019-03-28T11:08:21.615Z,19.23
2019-03-28T11:09:25.802Z,17.87
2019-03-28T11:10:30.709Z,20.12
2019-03-28T11:11:35.110Z,18.75
2019-03-28T11:12:39.330Z,18.45
2019-03-28T11:13:43.548Z,16.25
2019-03-28T11:14:47.738Z,16.05
2019-03-28T11:15:51.906Z,18.73
2019-03-28T11:16:56.221Z,21.02
2019-03-28T11:18:00.444Z,17.62
2019-03-28T11:19:04.805Z,15.30
2019-03-28T11:20:09.771Z,17.23
2019-03-28T11:21:14.115Z,16.63
2019-03-28T11:22:18.320Z,17.73
2019-03-28T11:23:22.478Z,15.67
2019-03-28T11:24:26.718Z,16.02
2019-03-28T11:25:30.877Z,16.80
2019-03-28T11:26:36.022Z,14.83
2019-03-28T11:27:40.198Z,13.53
2019-03-28T11:28:44.404Z,14.23
2019-03-28T11:29:48.648Z,16.65
2019-03-28T11:30:53.802Z,18.20
2019-03-28T11:31:57.986Z,17.65
2019-03-28T11:33:02.168Z,16.97
2019-03-28T11:34:06.354Z,17.62
2019-03-28T11:35:10.712Z,17.63
2019-03-28T11:36:14.894Z,21.62
2019-03-28T11:37:25.907Z,15.37
2019-03-28T11:38:25.027Z,18.55
2019-03-28T11:39:29.210Z,18.50
2019-03-28T11:40:33.556Z,16.45
2019-03-28T11:41:37.730Z,12.85
2019-03-28T11:42:42.007Z,15.72
2019-03-28T11:43:46.192Z,16.93
2019-03-28T11:44:50.382Z,17.23
2019-03-28T11:45:54.607Z,16.57
2019-03-28T11:46:58.787Z,18.37
2019-03-28T11:48:03.048Z,19.48
2019-03-28T11:49:08.202Z,19.80
2019-03-28T11:50:12.530Z,17.47
2019-03-28T11:51:16.735Z,14.98
2019-03-28T11:52:20.914Z,15.40
2019-03-28T11:53:25.124Z,17.62
2019-03-28T11:54:29.306Z,20.80
2019-03-28T11:55:33.497Z,17.50
2019-03-28T11:56:38.113Z,18.32
2019-03-28T11:57:42.296Z,17.77
2019-03-28T11:58:46.478Z,17.60
2019-03-28T11:59:50.664Z,16.87
2019-03-28T12:00:54.970Z,20.40
2019-03-28T12:02:08.882Z,17.80
2019-03-28T12:03:05.480Z,15.28
2019-03-28T12:04:09.772Z,14.78
2019-03-28T12:05:13.934Z,15.78
2019-03-28T12:06:18.119Z,16.23
2019-03-28T12:07:22.414Z,19.60
2019-03-28T12:08:26.630Z,15.55
2019-03-28T12:09:31.537Z,13.78
2019-03-28T12:10:35.721Z,17.60
2019-03-28T12:11:39.931Z,17.20
2019-03-28T12:12:44.735Z,16.73
2019-03-28T12:13:48.971Z,14.90
2019-03-28T12:14:53.146Z,13.15
2019-03-28T12:15:57.401Z,13.70
2019-03-28T12:17:01.582Z,16.75
2019-03-28T12:18:05.800Z,14.65
2019-03-28T12:19:10.943Z,16.48
2019-03-28T12:20:15.401Z,15.43
2019-03-28T12:21:19.641Z,16.30
2019-03-28T12:22:23.817Z,13.40
2019-03-28T12:23:28.173Z,13.70
2019-03-28T12:24:34.023Z,12.80
2019-03-28T12:25:38.200Z,12.98
2019-03-28T12:26:42.423Z,13.50
2019-03-28T12:27:47.742Z,12.55
2019-03-28T12:28:51.930Z,12.80
2019-03-28T12:29:56.588Z,14.00
2019-03-28T12:31:00.758Z,15.08
2019-03-28T12:32:14.035Z,14.35
2019-03-28T12:33:11.007Z,14.97
2019-03-28T12:34:15.250Z,14.57
2019-03-28T12:35:19.868Z,16.30
2019-03-28T12:36:24.046Z,11.48
2019-03-28T12:37:29.850Z,9.85
2019-03-28T12:38:35.096Z,10.73
2019-03-28T12:39:39.345Z,11.97
2019-03-28T12:40:43.549Z,10.88
2019-03-28T12:41:47.851Z,8.85
2019-03-28T12:42:51.997Z,9.00
2019-03-28T12:43:56.304Z,10.25
2019-03-28T12:45:00.454Z,12.88
2019-03-28T12:46:04.658Z,11.85
2019-03-28T12:47:08.906Z,11.93
2019-03-28T12:48:13.083Z,11.23
2019-03-28T12:49:17.257Z,13.93
2019-03-28T12:50:21.764Z,10.30
2019-03-28T12:51:26.524Z,8.53
2019-03-28T12:52:30.806Z,9.03
2019-03-28T12:53:35.041Z,11.38
2019-03-28T12:54:39.387Z,9.33
2019-03-28T12:55:43.540Z,9.05
2019-03-28T12:56:47.786Z,9.18
2019-03-28T12:57:51.932Z,9.68
2019-03-28T12:58:56.171Z,8.45
2019-03-28T13:00:00.452Z,10.95
2019-03-28T13:01:04.825Z,10.43
2019-03-28T13:02:09.008Z,10.95
2019-03-28T13:03:13.185Z,12.90
2019-03-28T13:04:18.493Z,9.35
2019-03-28T13:05:22.945Z,10.50
2019-03-28T13:06:27.125Z,13.43
2019-03-28T13:07:31.301Z,10.88
2019-03-28T13:08:35.480Z,13.18
2019-03-28T13:09:39.657Z,10.45
2019-03-28T13:10:45.508Z,11.63
2019-03-28T13:11:49.692Z,10.03
2019-03-28T13:12:53.868Z,9.10
2019-03-28T13:13:59.687Z,10.73
2019-03-28T13:15:04.626Z,11.35
2019-03-28T13:16:08.844Z,9.53
2019-03-28T13:17:13.166Z,10.00
2019-03-28T13:18:17.345Z,11.70
2019-03-28T13:19:22.588Z,10.63
2019-03-28T13:20:26.851Z,9.80
2019-03-28T13:21:31.068Z,8.43
2019-03-28T13:22:35.253Z,9.60
2019-03-28T13:23:39.430Z,10.25
2019-03-28T13:24:43.686Z,8.83
2019-03-28T13:25:47.863Z,9.45
2019-03-28T13:26:52.066Z,9.70
2019-03-28T13:27:56.263Z,11.80
2019-03-28T13:29:00.490Z,10.13
2019-03-28T13:30:08.056Z,9.64
2019-03-28T13:31:12.303Z,8.93
2019-03-28T13:32:16.584Z,9.20
2019-03-28T13:33:20.755Z,9.63
2019-03-28T13:34:24.927Z,10.78
2019-03-28T13:35:29.096Z,8.58
2019-03-28T13:36:33.277Z,10.73
2019-03-28T13:37:37.491Z,8.58
2019-03-28T13:38:41.654Z,8.68
2019-03-28T13:39:45.825Z,7.62
2019-03-28T13:40:50.060Z,8.18
2019-03-28T13:41:54.234Z,8.88
2019-03-28T13:42:58.620Z,7.60
2019-03-28T13:44:02.793Z,7.92
2019-03-28T13:45:07.894Z,7.67
2019-03-28T13:46:12.328Z,8.97
2019-03-28T13:47:16.499Z,7.80
2019-03-28T13:48:20.899Z,7.30
2019-03-28T13:49:25.347Z,8.83
2019-03-28T13:50:29.597Z,9.58
2019-03-28T13:51:34.911Z,7.62